البصرة, العراق

07:15 AM AST on مارس 04, 2015 (GMT +0300)
Basrah International | Change Station
CLOSE
Current Station
Airport
Location: Basrah,
Elevation: 7 ft
Nearby Weather Stations

Elev 7 ft 30.52 °N, 47.78 °E | Updated 15 minutes ago

Clear
صافية
48 °F
Feels Like 48 °F
N
4
ريح متغير ريح from جنوب غربی

هذا اليوم
High -- | Low -- °F
--% Chance of Precip.
Yesterday
High -- | Low -- °F
Precip. -- في
6:12 AM 5:49 PM
الأحدب الأول, 98% visible
الضغط 29.98 في
وضوح الرؤية -9999.0 أميال
سحابات
نقطة الندى 34 °F
الرطوبة 58%
Rainfall 0.00 في
عمق الثلج Not available.
الأشعة فوق البنفسجية Not available.
Pollen Not available.
جودة الهواء Not available.
Flu Activity Not available.
METAR ORMM 040400Z 22003KT CAVOK 09/01 Q1015 NOSIG

More Conditions Fewer Conditions

الضغط 29.98 في
وضوح الرؤية -9999.0 أميال
سحابات
نقطة الندى 34 °F
الرطوبة 58%
Rainfall 0.00 في
عمق الثلج Not available.
الأشعة فوق البنفسجية Not available.
Pollen Not available.
جودة الهواء Not available.
Flu Activity Not available.
METAR ORMM 040400Z 22003KT CAVOK 09/01 Q1015 NOSIG

More Conditions Fewer Conditions

10-Day Weather Forecast

Almanac

علم الفلك

Mar. 04, 2015 Rise Set
Actual Time
Civil Twilight
Nautical Twilight
Astronomical Twilight
قمر
Length Of Visible Light
طول الیوم
Tomorrow will be .
, % of the Moon is Illuminated

Today's Extremes

Country Highs Country Lows

Community

WunderPhotos

Upload Photos

1,802,383 photos uploaded!

WunderBlogs® & News

Nearby

جودة الهواء

  جودة الهواء AQ Index Pollutant
Not available.

عمق الثلج

Station Depth Elevation

Earthquake Activity

City Distance Mag. Time & Date
Minimum magnitude displayed is 2.5.

Coastal Water Temperatures

مكان درجات الحرارة

Nearby Weather Stations